Terminal Aerodrome Forecast
Issued by NWS

Home | Current Version | Previous Version | Text Only | Print | Product List | Glossary On
Versions: 1 2 3 4 5 6 7 8 9 10 11 12 13 14 15 16 17 18 19
000
FTUS43 KGRR 242340
TAFBTL
TAF
KBTL 242340Z 2500/2524 22010KT P6SM VCTS BKN070CB
     FM250600 25005KT 6SM BR BKN050
     FM251200 29010KT P6SM SCT050=

USA.gov is the U.S. government's official web portal to all federal, state and local government web resources and services.